Terminal Aerodrome Forecast
Issued by NWS Tulsa, OK

Home | Current Version | Previous Version | Text Only | Print | Product List | Glossary On
Versions: 1 2 3 4 5 6 7 8 9 10 11 12 13 14
000
FTUS44 KTSA 202100 AAA
TAFTUL
TAF AMD
KTUL 202105Z 2021/2118 16016G23KT P6SM FEW110
     FM210200 16012KT P6SM SKC
     FM211500 19015G25KT P6SM SCT250=

USA.gov is the U.S. government's official web portal to all federal, state and local government web resources and services.